createdAt,value
2022-08-08T00:00:55.026Z,52.20
2022-08-08T00:06:09.931Z,52.30
2022-08-08T00:11:17.982Z,52.20
2022-08-08T00:16:26.705Z,52.30
2022-08-08T00:21:39.556Z,52.90
2022-08-08T00:26:52.567Z,52.30
2022-08-08T00:32:21.106Z,52.50
2022-08-08T00:37:47.167Z,52.70
2022-08-08T00:43:19.257Z,52.70
2022-08-08T00:48:42.015Z,52.90
2022-08-08T00:54:41.105Z,53.00
2022-08-08T01:00:04.847Z,53.30
2022-08-08T01:05:58.603Z,53.80
2022-08-08T01:11:12.290Z,54.40
2022-08-08T01:16:54.967Z,54.20
2022-08-08T01:22:40.328Z,54.40
2022-08-08T01:28:28.100Z,54.50
2022-08-08T01:33:53.998Z,54.90
2022-08-08T01:39:35.018Z,55.50
2022-08-08T01:44:54.928Z,55.30
2022-08-08T01:50:26.228Z,55.70
2022-08-08T01:56:27.481Z,56.10
2022-08-08T02:01:15.892Z,55.70
2022-08-08T02:06:48.240Z,56.30
2022-08-08T02:12:00.429Z,55.80
2022-08-08T02:17:20.174Z,56.30
2022-08-08T02:22:34.286Z,56.50
2022-08-08T02:28:25.895Z,56.80
2022-08-08T02:34:08.006Z,56.40
2022-08-08T02:40:00.056Z,57.00
2022-08-08T02:45:51.240Z,56.70
2022-08-08T02:51:30.105Z,56.90
2022-08-08T02:57:22.480Z,57.00
2022-08-08T03:02:50.552Z,57.30
2022-08-08T03:08:10.191Z,57.60
2022-08-08T03:15:53.334Z,58.00
2022-08-08T03:18:53.767Z,57.50
2022-08-08T03:24:01.887Z,58.30
2022-08-08T03:29:16.893Z,58.30
2022-08-08T03:34:23.990Z,58.60
2022-08-08T03:39:29.585Z,58.80
2022-08-08T03:44:33.951Z,58.90
2022-08-08T03:49:59.597Z,59.00
2022-08-08T03:55:20.370Z,59.00
2022-08-08T04:00:27.703Z,59.30
2022-08-08T04:05:48.094Z,59.30
2022-08-08T04:10:59.865Z,59.40
2022-08-08T04:16:05.614Z,59.50
2022-08-08T04:21:13.367Z,59.60
2022-08-08T04:26:17.566Z,60.20
2022-08-08T04:31:57.264Z,59.80
2022-08-08T04:36:44.803Z,59.90
2022-08-08T04:41:48.928Z,60.00
2022-08-08T04:46:53.311Z,60.20
2022-08-08T04:51:57.662Z,60.30
2022-08-08T04:57:01.769Z,60.30
2022-08-08T05:02:04.305Z,60.30
2022-08-08T05:07:10.320Z,60.60
2022-08-08T05:12:20.423Z,60.40
2022-08-08T05:17:24.341Z,60.50
2022-08-08T05:22:28.015Z,60.60
2022-08-08T05:27:41.515Z,60.50
2022-08-08T05:32:45.400Z,60.70
2022-08-08T05:37:59.264Z,60.70
2022-08-08T05:44:02.562Z,60.90
2022-08-08T05:48:52.168Z,61.00
2022-08-08T05:54:27.740Z,60.70
2022-08-08T05:59:59.141Z,60.70
2022-08-08T06:04:57.022Z,60.60
2022-08-08T06:10:06.289Z,60.60
2022-08-08T06:15:12.580Z,60.60
2022-08-08T06:20:20.807Z,60.20
2022-08-08T06:25:33.160Z,60.40
2022-08-08T06:30:51.739Z,60.10
2022-08-08T06:36:08.477Z,60.00
2022-08-08T06:41:17.571Z,59.80
2022-08-08T06:46:23.759Z,59.10
2022-08-08T06:51:46.692Z,58.50
2022-08-08T06:56:52.833Z,58.50
2022-08-08T07:02:27.350Z,59.50
2022-08-08T07:07:45.488Z,59.50
2022-08-08T07:12:54.416Z,63.10
2022-08-08T07:18:36.999Z,59.80
2022-08-08T07:24:01.621Z,57.60
2022-08-08T07:29:20.270Z,54.30
2022-08-08T07:34:35.007Z,50.60
2022-08-08T07:39:57.617Z,50.50
2022-08-08T07:45:05.812Z,49.00
2022-08-08T07:50:12.220Z,48.60
2022-08-08T07:55:28.543Z,48.90
2022-08-08T08:00:43.375Z,47.00
2022-08-08T08:05:53.403Z,47.40
2022-08-08T08:11:00.256Z,47.40
2022-08-08T08:16:06.928Z,45.60
2022-08-08T08:21:18.664Z,45.80
2022-08-08T08:26:27.551Z,47.30
2022-08-08T08:31:34.754Z,47.50
2022-08-08T08:36:44.983Z,46.70
2022-08-08T08:41:54.916Z,46.40
2022-08-08T08:47:02.904Z,47.10
2022-08-08T08:52:11.490Z,45.00
2022-08-08T08:57:17.293Z,45.20
2022-08-08T09:02:35.714Z,45.10
2022-08-08T09:07:52.379Z,44.90
2022-08-08T09:13:09.937Z,44.10
2022-08-08T09:18:14.792Z,44.80
2022-08-08T09:23:25.516Z,45.00
2022-08-08T09:28:37.536Z,45.00
2022-08-08T09:34:15.091Z,45.30
2022-08-08T09:39:19.158Z,46.00
2022-08-08T09:44:50.717Z,45.80
2022-08-08T09:49:58.912Z,46.10
2022-08-08T09:55:07.163Z,45.30
2022-08-08T10:00:35.994Z,46.20
2022-08-08T10:05:37.091Z,46.20
2022-08-08T10:10:50.006Z,46.10
2022-08-08T10:16:01.092Z,45.90
2022-08-08T10:21:22.970Z,46.70
2022-08-08T10:26:56.914Z,46.20
2022-08-08T10:32:17.993Z,44.90
2022-08-08T10:37:30.230Z,44.30
2022-08-08T10:42:37.541Z,43.90
2022-08-08T10:47:48.580Z,44.60
2022-08-08T10:53:03.488Z,45.00
2022-08-08T10:58:09.717Z,45.30
2022-08-08T11:03:15.603Z,44.70
2022-08-08T11:08:37.219Z,45.50
2022-08-08T11:13:52.169Z,45.40
2022-08-08T11:19:05.101Z,45.00
2022-08-08T11:24:10.202Z,45.30
2022-08-08T11:29:15.868Z,44.90
2022-08-08T11:34:23.466Z,45.10
2022-08-08T11:39:37.009Z,45.50
2022-08-08T11:44:40.573Z,44.40
2022-08-08T11:49:44.835Z,45.00
2022-08-08T11:54:52.128Z,44.50
2022-08-08T12:00:02.772Z,45.20
2022-08-08T12:05:16.680Z,44.10
2022-08-08T12:10:21.932Z,44.20
2022-08-08T12:15:29.440Z,44.60
2022-08-08T12:20:40.185Z,44.60
2022-08-08T12:25:44.877Z,45.20
2022-08-08T12:31:06.516Z,44.30
2022-08-08T12:36:12.806Z,44.30
2022-08-08T12:41:34.010Z,44.90
2022-08-08T12:46:37.587Z,43.40
2022-08-08T12:51:53.633Z,43.90
2022-08-08T12:57:14.115Z,43.60
2022-08-08T13:02:28.481Z,43.60
2022-08-08T13:08:04.265Z,43.90
2022-08-08T13:13:06.172Z,43.40
2022-08-08T13:18:13.660Z,43.20
2022-08-08T13:23:36.587Z,43.00
2022-08-08T13:28:42.194Z,42.90
2022-08-08T13:33:49.813Z,42.70
2022-08-08T13:38:52.619Z,42.50
2022-08-08T13:43:54.961Z,42.30
2022-08-08T13:50:33.392Z,43.10
2022-08-08T13:54:29.488Z,43.10
2022-08-08T13:59:40.740Z,42.70
2022-08-08T14:05:09.199Z,42.90
2022-08-08T14:10:33.143Z,43.00
2022-08-08T14:15:50.142Z,43.30
2022-08-08T14:21:08.251Z,43.00
2022-08-08T14:26:25.195Z,43.50
2022-08-08T14:32:06.223Z,43.20
2022-08-08T14:36:54.581Z,43.50
2022-08-08T14:42:03.488Z,43.50
2022-08-08T14:47:16.976Z,43.70
2022-08-08T14:52:24.206Z,43.80
2022-08-08T14:58:02.542Z,44.30
2022-08-08T15:03:10.568Z,45.00
2022-08-08T15:08:22.073Z,45.70
2022-08-08T15:13:40.966Z,46.90
2022-08-08T15:18:58.348Z,47.70
2022-08-08T15:24:00.629Z,48.10
2022-08-08T15:29:03.448Z,48.60
2022-08-08T15:34:18.671Z,49.20
2022-08-08T15:39:39.082Z,49.20
2022-08-08T15:44:42.589Z,49.90
2022-08-08T15:49:47.753Z,50.00
2022-08-08T15:54:51.823Z,50.30
2022-08-08T16:00:14.168Z,50.60
2022-08-08T16:05:17.185Z,50.60
2022-08-08T16:13:15.519Z,50.80
2022-08-08T16:15:57.734Z,51.10
2022-08-08T16:21:20.667Z,51.10
2022-08-08T16:26:34.835Z,51.40
2022-08-08T16:31:44.752Z,51.40
2022-08-08T16:36:51.583Z,51.50
2022-08-08T16:41:55.030Z,51.60
2022-08-08T16:47:39.986Z,51.60
2022-08-08T16:55:20.745Z,51.40
2022-08-08T16:58:15.252Z,51.40
2022-08-08T17:03:24.837Z,50.90
2022-08-08T17:08:37.560Z,50.70
2022-08-08T17:14:00.799Z,50.40
2022-08-08T17:19:03.340Z,50.60
2022-08-08T17:24:10.548Z,50.20
2022-08-08T17:29:33.695Z,49.80
2022-08-08T17:35:44.567Z,49.60
2022-08-08T17:40:05.889Z,49.10
2022-08-08T17:45:22.502Z,49.10
2022-08-08T17:50:26.433Z,49.00
2022-08-08T17:56:05.564Z,48.60
2022-08-08T18:00:56.450Z,48.70
2022-08-08T18:05:59.749Z,48.50
2022-08-08T18:11:03.657Z,48.10
2022-08-08T18:16:06.316Z,47.90
2022-08-08T18:21:10.725Z,48.20
2022-08-08T18:26:29.090Z,47.70
2022-08-08T18:31:31.565Z,47.60
2022-08-08T18:36:33.822Z,47.30
2022-08-08T18:41:51.347Z,47.20
2022-08-08T18:47:00.887Z,47.00
2022-08-08T18:52:03.274Z,47.40
2022-08-08T18:57:08.881Z,47.10
2022-08-08T19:02:28.751Z,46.90
2022-08-08T19:07:33.398Z,46.60
2022-08-08T19:12:39.762Z,45.80
2022-08-08T19:17:47.984Z,46.30
2022-08-08T19:22:50.752Z,46.10
2022-08-08T19:27:57.469Z,46.10
2022-08-08T19:33:02.620Z,46.20
2022-08-08T19:38:06.471Z,45.70
2022-08-08T19:43:12.451Z,45.60
2022-08-08T19:48:28.764Z,45.30
2022-08-08T19:53:53.501Z,45.40
2022-08-08T19:58:55.644Z,45.10
2022-08-08T20:04:01.649Z,45.30
2022-08-08T20:09:08.745Z,45.40
2022-08-08T20:14:32.574Z,45.30
2022-08-08T20:19:42.359Z,45.30
2022-08-08T20:24:45.958Z,45.30
2022-08-08T20:30:00.224Z,45.30
2022-08-08T20:35:04.386Z,45.30
2022-08-08T20:40:08.777Z,45.30
2022-08-08T20:45:11.224Z,45.30
2022-08-08T20:50:15.465Z,45.20
2022-08-08T20:55:25.887Z,45.40
2022-08-08T21:00:28.480Z,45.20
2022-08-08T21:05:32.732Z,45.10
2022-08-08T21:10:52.326Z,44.90
2022-08-08T21:16:05.149Z,44.80
2022-08-08T21:21:38.560Z,44.70
2022-08-08T21:26:41.820Z,44.70
2022-08-08T21:31:58.347Z,44.40
2022-08-08T21:37:11.480Z,44.40
2022-08-08T21:42:18.610Z,44.90
2022-08-08T21:48:07.164Z,44.30
2022-08-08T21:54:33.386Z,44.30
2022-08-08T21:58:14.715Z,44.20
2022-08-08T22:03:19.713Z,44.00
2022-08-08T22:08:24.330Z,44.10
2022-08-08T22:13:26.698Z,44.10
2022-08-08T22:18:49.548Z,44.20
2022-08-08T22:23:55.043Z,44.10
2022-08-08T22:29:13.255Z,44.10
2022-08-08T22:34:21.462Z,44.40
2022-08-08T22:39:45.552Z,44.30
2022-08-08T22:44:48.688Z,44.50
2022-08-08T22:49:53.984Z,44.60
2022-08-08T22:55:04.343Z,44.80
2022-08-08T23:00:11.754Z,44.90
2022-08-08T23:05:15.912Z,45.00
2022-08-08T23:10:19.564Z,45.10
2022-08-08T23:16:38.199Z,45.30
2022-08-08T23:20:51.497Z,45.40
2022-08-08T23:25:57.427Z,45.60
2022-08-08T23:30:59.744Z,45.90
2022-08-08T23:36:07.754Z,46.10
2022-08-08T23:41:17.605Z,46.30
2022-08-08T23:49:05.466Z,46.40
2022-08-08T23:52:05.037Z,46.60
2022-08-08T23:57:15.375Z,46.80
